createdAt,value
2022-10-01T00:00:48.691Z,17.23
2022-10-01T00:03:12.317Z,17.70
2022-10-01T00:05:35.924Z,15.90
2022-10-01T00:07:59.439Z,16.60
2022-10-01T00:10:23.397Z,16.53
2022-10-01T00:12:50.016Z,15.80
2022-10-01T00:15:14.423Z,16.47
2022-10-01T00:17:39.558Z,16.37
2022-10-01T00:20:10.677Z,15.43
2022-10-01T00:22:38.516Z,16.17
2022-10-01T00:25:02.094Z,15.97
2022-10-01T00:27:25.714Z,16.20
2022-10-01T00:29:49.270Z,16.33
2022-10-01T00:32:12.844Z,16.00
2022-10-01T00:34:37.801Z,16.67
2022-10-01T00:37:01.564Z,16.57
2022-10-01T00:39:25.147Z,15.50
2022-10-01T00:41:48.752Z,15.37
2022-10-01T00:44:35.466Z,16.30
2022-10-01T00:47:06.059Z,16.03
2022-10-01T00:49:33.606Z,16.57
2022-10-01T00:52:03.050Z,16.60
2022-10-01T00:54:39.218Z,17.10
2022-10-01T00:57:04.132Z,15.13
2022-10-01T00:59:29.123Z,16.60
2022-10-01T01:01:52.999Z,18.10
2022-10-01T01:04:17.407Z,17.27
2022-10-01T01:06:41.254Z,18.67
2022-10-01T01:09:06.197Z,17.17
2022-10-01T01:11:38.967Z,17.30
2022-10-01T01:14:10.766Z,17.27
2022-10-01T01:16:39.527Z,17.77
2022-10-01T01:19:10.201Z,17.53
2022-10-01T01:21:37.182Z,17.60
2022-10-01T01:24:45.623Z,17.97
2022-10-01T01:27:31.384Z,17.20
2022-10-01T01:30:04.780Z,16.37
2022-10-01T01:32:34.166Z,17.07
2022-10-01T01:35:02.238Z,16.77
2022-10-01T01:37:32.242Z,18.37
2022-10-01T01:39:58.155Z,17.40
2022-10-01T01:42:28.971Z,16.87
2022-10-01T01:44:58.033Z,17.97
2022-10-01T01:47:24.541Z,17.47
2022-10-01T01:49:50.227Z,16.70
2022-10-01T01:52:17.316Z,16.17
2022-10-01T01:54:41.747Z,17.23
2022-10-01T01:57:07.424Z,17.70
2022-10-01T01:59:31.616Z,16.27
2022-10-01T02:01:56.638Z,16.67
2022-10-01T02:04:26.062Z,16.87
2022-10-01T02:07:36.055Z,18.40
2022-10-01T02:10:14.554Z,15.90
2022-10-01T02:12:52.751Z,17.47
2022-10-01T02:15:28.799Z,17.10
2022-10-01T02:18:00.833Z,17.93
2022-10-01T02:20:31.639Z,18.33
2022-10-01T02:23:00.099Z,17.73
2022-10-01T02:25:27.112Z,18.43
2022-10-01T02:27:59.287Z,19.43
2022-10-01T02:30:23.214Z,18.57
2022-10-01T02:32:48.894Z,19.33
2022-10-01T02:35:18.235Z,19.73
2022-10-01T02:37:44.356Z,20.83
2022-10-01T02:40:15.861Z,18.67
2022-10-01T02:42:41.181Z,18.50
2022-10-01T02:45:07.591Z,18.47
2022-10-01T02:47:36.211Z,20.50
2022-10-01T02:49:59.759Z,20.07
2022-10-01T02:52:32.422Z,19.00
2022-10-01T02:55:01.669Z,19.83
2022-10-01T02:57:24.629Z,19.40
2022-10-01T02:59:48.219Z,19.93
2022-10-01T03:02:12.313Z,20.03
2022-10-01T03:04:35.978Z,21.13
2022-10-01T03:07:03.578Z,20.53
2022-10-01T03:09:28.474Z,19.70
2022-10-01T03:11:51.999Z,19.30
2022-10-01T03:14:15.591Z,20.07
2022-10-01T03:16:39.330Z,19.47
2022-10-01T03:19:02.914Z,19.27
2022-10-01T03:21:26.958Z,19.73
2022-10-01T03:23:50.516Z,18.80
2022-10-01T03:26:15.400Z,18.33
2022-10-01T03:28:38.981Z,18.80
2022-10-01T03:31:10.453Z,17.50
2022-10-01T03:33:34.167Z,18.70
2022-10-01T03:35:57.675Z,17.87
2022-10-01T03:38:21.242Z,17.93
2022-10-01T03:40:44.742Z,19.30
2022-10-01T03:43:09.695Z,17.97
2022-10-01T03:45:33.264Z,17.20
2022-10-01T03:47:56.843Z,16.63
2022-10-01T03:50:21.071Z,16.57
2022-10-01T03:52:44.925Z,17.47
2022-10-01T03:55:09.867Z,16.27
2022-10-01T03:57:33.472Z,17.20
2022-10-01T03:59:58.358Z,16.40
2022-10-01T04:02:22.075Z,15.48
2022-10-01T04:04:45.665Z,15.90
2022-10-01T04:07:09.263Z,16.15
2022-10-01T04:09:32.825Z,16.23
2022-10-01T04:11:56.463Z,15.75
2022-10-01T04:14:19.995Z,15.70
2022-10-01T04:16:45.248Z,16.40
2022-10-01T04:19:08.787Z,15.65
2022-10-01T04:21:32.774Z,16.03
2022-10-01T04:23:56.487Z,15.68
2022-10-01T04:26:20.307Z,16.58
2022-10-01T04:28:45.228Z,15.73
2022-10-01T04:31:27.315Z,15.85
2022-10-01T04:33:52.571Z,15.98
2022-10-01T04:36:16.327Z,16.77
2022-10-01T04:38:40.088Z,15.32
2022-10-01T04:41:03.801Z,15.85
2022-10-01T04:43:27.596Z,16.33
2022-10-01T04:45:51.263Z,15.07
2022-10-01T04:48:14.993Z,15.90
2022-10-01T04:50:40.244Z,14.32
2022-10-01T04:53:03.951Z,14.75
2022-10-01T04:55:28.257Z,14.65
2022-10-01T04:57:52.166Z,14.80
2022-10-01T05:00:18.662Z,14.50
2022-10-01T05:02:45.956Z,15.00
2022-10-01T05:05:10.409Z,13.48
2022-10-01T05:07:36.515Z,14.40
2022-10-01T05:10:00.213Z,13.32
2022-10-01T05:12:25.495Z,13.63
2022-10-01T05:14:49.129Z,13.43
2022-10-01T05:17:12.780Z,14.15
2022-10-01T05:19:36.410Z,14.23
2022-10-01T05:22:00.150Z,13.57
2022-10-01T05:24:25.241Z,13.73
2022-10-01T05:26:48.926Z,13.02
2022-10-01T05:29:15.259Z,13.27
2022-10-01T05:31:41.491Z,13.55
2022-10-01T05:34:05.146Z,13.32
2022-10-01T05:36:28.829Z,14.07
2022-10-01T05:38:52.455Z,16.33
2022-10-01T05:41:17.541Z,15.93
2022-10-01T05:43:41.189Z,19.27
2022-10-01T05:46:05.961Z,16.92
2022-10-01T05:48:31.682Z,14.07
2022-10-01T05:50:55.437Z,14.13
2022-10-01T05:53:19.176Z,20.27
2022-10-01T05:55:43.089Z,18.67
2022-10-01T05:58:10.953Z,13.85
2022-10-01T06:00:36.370Z,17.23
2022-10-01T06:03:01.524Z,12.13
2022-10-01T06:05:25.921Z,12.18
2022-10-01T06:07:49.758Z,11.93
2022-10-01T06:10:13.529Z,11.90
2022-10-01T06:12:37.201Z,12.57
2022-10-01T06:15:02.158Z,11.57
2022-10-01T06:17:25.791Z,12.23
2022-10-01T06:19:49.991Z,11.15
2022-10-01T06:22:13.474Z,11.13
2022-10-01T06:24:38.097Z,11.68
2022-10-01T06:27:01.761Z,11.52
2022-10-01T06:29:25.478Z,11.55
2022-10-01T06:31:50.459Z,10.65
2022-10-01T06:34:14.075Z,10.02
2022-10-01T06:36:37.581Z,10.10
2022-10-01T06:39:01.279Z,11.30
2022-10-01T06:41:24.943Z,10.55
2022-10-01T06:43:51.019Z,10.48
2022-10-01T06:46:14.585Z,9.93
2022-10-01T06:48:39.554Z,10.30
2022-10-01T06:51:03.389Z,9.73
2022-10-01T06:53:28.251Z,10.20
2022-10-01T06:55:52.037Z,9.27
2022-10-01T06:58:17.687Z,9.82
2022-10-01T07:00:41.345Z,9.27
2022-10-01T07:03:06.583Z,9.77
2022-10-01T07:05:31.658Z,10.48
2022-10-01T07:07:55.677Z,10.20
2022-10-01T07:10:21.084Z,8.80
2022-10-01T07:12:46.148Z,9.40
2022-10-01T07:15:10.880Z,10.32
2022-10-01T07:17:34.493Z,77.03
2022-10-01T07:19:58.178Z,32.47
2022-10-01T07:22:24.269Z,12.68
2022-10-01T07:24:48.282Z,11.63
2022-10-01T07:27:11.861Z,10.55
2022-10-01T07:29:35.539Z,9.95
2022-10-01T07:32:01.265Z,9.65
2022-10-01T07:34:25.131Z,10.05
2022-10-01T07:36:50.718Z,9.55
2022-10-01T07:39:15.614Z,8.93
2022-10-01T07:41:39.314Z,10.23
2022-10-01T07:44:04.233Z,9.52
2022-10-01T07:46:31.439Z,9.50
2022-10-01T07:48:57.563Z,9.75
2022-10-01T07:51:21.127Z,9.75
2022-10-01T07:53:44.689Z,10.25
2022-10-01T07:56:09.626Z,10.05
2022-10-01T07:58:33.195Z,9.88
2022-10-01T08:00:58.720Z,9.30
2022-10-01T08:03:22.484Z,9.88
2022-10-01T08:05:46.520Z,8.93
2022-10-01T08:08:10.860Z,9.10
2022-10-01T08:10:36.569Z,8.90
2022-10-01T08:13:08.829Z,8.50
2022-10-01T08:15:32.437Z,8.35
2022-10-01T08:17:55.951Z,8.05
2022-10-01T08:20:21.512Z,8.52
2022-10-01T08:22:45.038Z,8.40
2022-10-01T08:25:09.492Z,8.40
2022-10-01T08:27:33.054Z,8.32
2022-10-01T08:29:58.041Z,8.60
2022-10-01T08:32:22.137Z,8.18
2022-10-01T08:34:46.696Z,7.65
2022-10-01T08:37:10.226Z,7.97
2022-10-01T08:39:33.799Z,7.57
2022-10-01T08:42:05.893Z,7.93
2022-10-01T08:44:34.759Z,7.53
2022-10-01T08:47:06.722Z,7.15
2022-10-01T08:49:36.095Z,7.03
2022-10-01T08:52:04.992Z,6.32
2022-10-01T08:54:36.442Z,7.32
2022-10-01T08:57:03.099Z,7.20
2022-10-01T08:59:41.807Z,6.75
2022-10-01T09:02:20.171Z,6.68
2022-10-01T09:04:43.815Z,6.22
2022-10-01T09:07:22.843Z,6.60
2022-10-01T09:09:56.214Z,6.20
2022-10-01T09:12:33.724Z,6.55
2022-10-01T09:15:18.187Z,6.53
2022-10-01T09:18:01.051Z,6.18
2022-10-01T09:20:28.840Z,6.43
2022-10-01T09:23:14.837Z,14.13
2022-10-01T09:25:39.876Z,7.07
2022-10-01T09:28:13.124Z,6.57
2022-10-01T09:30:38.555Z,6.53
2022-10-01T09:33:13.321Z,5.88
2022-10-01T09:35:44.170Z,4.70
2022-10-01T09:38:18.517Z,4.90
2022-10-01T09:40:54.840Z,5.05
2022-10-01T09:43:22.000Z,5.05
2022-10-01T09:45:45.567Z,4.90
2022-10-01T09:48:24.799Z,4.90
2022-10-01T09:50:55.637Z,5.45
2022-10-01T09:53:24.499Z,4.63
2022-10-01T09:55:55.635Z,5.10
2022-10-01T09:58:22.741Z,5.15
2022-10-01T10:00:48.407Z,4.63
2022-10-01T10:03:25.354Z,4.85
2022-10-01T10:05:49.589Z,4.60
2022-10-01T10:08:16.303Z,4.53
2022-10-01T10:10:42.106Z,4.80
2022-10-01T10:13:19.553Z,4.63
2022-10-01T10:15:52.760Z,4.32
2022-10-01T10:18:23.026Z,4.38
2022-10-01T10:20:54.060Z,4.30
2022-10-01T10:23:20.989Z,4.43
2022-10-01T10:25:44.851Z,4.78
2022-10-01T10:28:23.583Z,5.28
2022-10-01T10:30:47.707Z,5.45
2022-10-01T10:33:15.973Z,10.27
2022-10-01T10:35:39.624Z,8.60
2022-10-01T10:38:04.580Z,7.88
2022-10-01T10:40:32.691Z,8.13
2022-10-01T10:42:59.088Z,7.60
2022-10-01T10:45:33.493Z,5.28
2022-10-01T10:47:57.906Z,6.40
2022-10-01T10:50:32.562Z,5.60
2022-10-01T10:52:56.839Z,6.28
2022-10-01T10:55:28.326Z,6.65
2022-10-01T10:57:57.282Z,6.13
2022-10-01T11:00:24.644Z,6.60
2022-10-01T11:02:55.682Z,7.68
2022-10-01T11:05:21.828Z,9.45
2022-10-01T11:07:46.779Z,9.00
2022-10-01T11:10:28.255Z,9.52
2022-10-01T11:13:39.886Z,9.13
2022-10-01T11:16:26.623Z,7.85
2022-10-01T11:19:07.783Z,8.07
2022-10-01T11:22:05.197Z,8.63
2022-10-01T11:24:59.053Z,7.82
2022-10-01T11:27:36.613Z,8.05
2022-10-01T11:30:07.963Z,9.13
2022-10-01T11:32:40.049Z,9.52
2022-10-01T11:35:22.580Z,7.55
2022-10-01T11:38:05.294Z,6.47
2022-10-01T11:40:36.900Z,7.65
2022-10-01T11:43:10.126Z,6.28
2022-10-01T11:45:41.273Z,6.78
2022-10-01T11:48:09.579Z,6.22
2022-10-01T11:50:39.225Z,6.93
2022-10-01T11:53:10.931Z,7.65
2022-10-01T11:55:58.486Z,9.18
2022-10-01T11:58:53.204Z,6.25
2022-10-01T12:01:23.257Z,7.05
2022-10-01T12:04:04.051Z,6.78
2022-10-01T12:06:34.569Z,7.68
2022-10-01T12:09:02.159Z,5.85
2022-10-01T12:11:31.132Z,4.95
2022-10-01T12:14:04.294Z,6.25
2022-10-01T12:16:43.174Z,5.40
2022-10-01T12:19:14.747Z,5.50
2022-10-01T12:21:43.038Z,5.30
2022-10-01T12:24:13.279Z,5.80
2022-10-01T12:26:48.583Z,6.03
2022-10-01T12:29:20.323Z,4.45
2022-10-01T12:31:53.675Z,4.70
2022-10-01T12:34:27.024Z,7.20
2022-10-01T12:37:07.584Z,5.93
2022-10-01T12:39:51.990Z,4.57
2022-10-01T12:42:46.323Z,4.75
2022-10-01T12:45:26.795Z,4.70
2022-10-01T12:48:01.556Z,6.75
2022-10-01T12:50:41.680Z,5.00
2022-10-01T12:53:24.826Z,4.40
2022-10-01T12:56:05.234Z,4.50
2022-10-01T12:59:24.261Z,6.57
2022-10-01T13:02:11.897Z,5.13
2022-10-01T13:05:06.752Z,4.90
2022-10-01T13:07:50.260Z,4.95
2022-10-01T13:10:33.234Z,5.22
2022-10-01T13:13:06.469Z,4.90
2022-10-01T13:15:35.644Z,4.80
2022-10-01T13:18:13.783Z,4.85
2022-10-01T13:20:42.227Z,5.32
2022-10-01T13:23:11.280Z,5.03
2022-10-01T13:25:42.801Z,6.13
2022-10-01T13:28:17.973Z,4.57
2022-10-01T13:30:59.202Z,5.40
2022-10-01T13:33:27.309Z,5.18
2022-10-01T13:35:57.790Z,5.22
2022-10-01T13:38:31.441Z,5.10
2022-10-01T13:41:01.385Z,4.07
2022-10-01T13:43:26.075Z,4.72
2022-10-01T13:45:52.402Z,4.70
2022-10-01T13:48:20.519Z,4.43
2022-10-01T13:50:58.615Z,5.05
2022-10-01T13:53:26.028Z,4.50
2022-10-01T13:55:50.668Z,5.00
2022-10-01T13:58:39.468Z,4.03
2022-10-01T14:01:05.810Z,4.43
2022-10-01T14:03:45.776Z,4.05
2022-10-01T14:06:19.742Z,4.05
2022-10-01T14:08:49.158Z,3.78
2022-10-01T14:11:34.226Z,3.50
2022-10-01T14:14:27.762Z,3.97
2022-10-01T14:16:51.502Z,5.65
2022-10-01T14:19:21.215Z,5.13
2022-10-01T14:21:59.580Z,6.25
2022-10-01T14:24:34.106Z,5.38
2022-10-01T14:27:04.163Z,6.00
2022-10-01T14:29:42.234Z,5.53
2022-10-01T14:32:23.037Z,5.65
2022-10-01T14:35:10.362Z,5.15
2022-10-01T14:37:40.300Z,7.03
2022-10-01T14:40:15.818Z,5.70
2022-10-01T14:42:39.364Z,4.15
2022-10-01T14:45:02.922Z,4.32
2022-10-01T14:47:34.971Z,4.07
2022-10-01T14:49:58.535Z,4.60
2022-10-01T14:52:25.563Z,4.55
2022-10-01T14:54:59.848Z,4.32
2022-10-01T14:57:31.546Z,4.50
2022-10-01T14:59:55.647Z,5.60
2022-10-01T15:02:21.805Z,4.50
2022-10-01T15:04:48.325Z,4.90
2022-10-01T15:07:17.101Z,4.25
2022-10-01T15:09:40.678Z,4.72
2022-10-01T15:12:07.431Z,3.90
2022-10-01T15:14:32.066Z,3.70
2022-10-01T15:16:55.838Z,4.60
2022-10-01T15:19:22.957Z,3.47
2022-10-01T15:21:51.933Z,3.60
2022-10-01T15:24:25.926Z,4.40
2022-10-01T15:26:50.971Z,4.05
2022-10-01T15:29:17.674Z,3.67
2022-10-01T15:31:42.129Z,5.32
2022-10-01T15:34:08.431Z,17.30
2022-10-01T15:36:33.021Z,49.00
2022-10-01T15:38:57.294Z,24.58
2022-10-01T15:41:31.859Z,8.68
2022-10-01T15:43:56.354Z,9.10
2022-10-01T15:46:32.413Z,14.50
2022-10-01T15:49:20.108Z,8.15
2022-10-01T15:52:16.749Z,6.40
2022-10-01T15:54:42.871Z,5.78
2022-10-01T15:57:07.405Z,4.88
2022-10-01T15:59:31.612Z,4.97
2022-10-01T16:01:57.408Z,5.53
2022-10-01T16:04:22.959Z,6.03
2022-10-01T16:06:49.962Z,7.13
2022-10-01T16:09:17.679Z,6.38
2022-10-01T16:11:55.162Z,4.10
2022-10-01T16:14:32.247Z,4.05
2022-10-01T16:17:34.846Z,5.03
2022-10-01T16:20:01.355Z,4.80
2022-10-01T16:22:28.419Z,4.95
2022-10-01T16:24:54.262Z,4.75
2022-10-01T16:27:19.942Z,4.78
2022-10-01T16:29:44.323Z,4.88
2022-10-01T16:32:14.412Z,4.47
2022-10-01T16:34:37.978Z,4.07
2022-10-01T16:37:01.483Z,4.97
2022-10-01T16:39:25.371Z,4.68
2022-10-01T16:42:12.032Z,4.70
2022-10-01T16:44:39.737Z,5.05
2022-10-01T16:47:03.341Z,6.40
2022-10-01T16:49:28.410Z,6.60
2022-10-01T16:51:54.399Z,6.28
2022-10-01T16:54:25.154Z,6.00
2022-10-01T16:56:50.611Z,6.80
2022-10-01T16:59:14.329Z,6.50
2022-10-01T17:01:37.969Z,7.95
2022-10-01T17:04:01.793Z,24.92
2022-10-01T17:06:26.858Z,22.17
2022-10-01T17:08:50.399Z,10.20
2022-10-01T17:11:14.250Z,9.32
2022-10-01T17:13:37.839Z,19.08
2022-10-01T17:16:02.337Z,47.08
2022-10-01T17:18:26.026Z,24.95
2022-10-01T17:20:49.915Z,28.17
2022-10-01T17:23:18.105Z,23.98
2022-10-01T17:25:43.703Z,19.92
2022-10-01T17:28:11.999Z,18.48
2022-10-01T17:30:36.367Z,12.30
2022-10-01T17:33:01.259Z,10.18
2022-10-01T17:35:25.207Z,11.07
2022-10-01T17:37:48.747Z,20.95
2022-10-01T17:40:14.194Z,20.95
2022-10-01T17:42:38.081Z,11.52
2022-10-01T17:45:02.758Z,9.35
2022-10-01T17:47:26.468Z,9.98
2022-10-01T17:49:49.991Z,6.50
2022-10-01T17:52:13.589Z,8.25
2022-10-01T17:54:38.348Z,11.20
2022-10-01T17:57:03.261Z,8.70
2022-10-01T17:59:26.863Z,9.40
2022-10-01T18:01:52.735Z,10.23
2022-10-01T18:04:17.266Z,7.38
2022-10-01T18:06:41.506Z,6.20
2022-10-01T18:09:05.556Z,7.85
2022-10-01T18:11:29.887Z,7.28
2022-10-01T18:13:55.020Z,11.00
2022-10-01T18:16:19.560Z,7.50
2022-10-01T18:21:28.648Z,12.20
2022-10-01T18:23:52.167Z,8.35
2022-10-01T18:26:15.956Z,11.25
2022-10-01T18:28:39.483Z,10.85
2022-10-01T18:31:26.573Z,8.65
2022-10-01T18:33:53.066Z,6.75
2022-10-01T18:36:27.468Z,8.88
2022-10-01T18:38:54.243Z,10.60
2022-10-01T18:41:28.025Z,16.92
2022-10-01T18:43:52.050Z,10.05
2022-10-01T18:46:39.010Z,9.95
2022-10-01T18:49:18.511Z,13.15
2022-10-01T18:51:57.107Z,10.65
2022-10-01T18:55:03.685Z,8.43
2022-10-01T18:57:51.637Z,8.63
2022-10-01T19:00:17.646Z,8.95
2022-10-01T19:03:18.019Z,8.77
2022-10-01T19:06:17.604Z,9.13
2022-10-01T19:09:08.555Z,9.18
2022-10-01T19:11:43.531Z,10.02
2022-10-01T19:14:33.727Z,10.38
2022-10-01T19:17:10.040Z,9.50
2022-10-01T19:19:44.605Z,10.52
2022-10-01T19:22:19.371Z,10.35
2022-10-01T19:24:57.913Z,8.57
2022-10-01T19:27:41.654Z,8.85
2022-10-01T19:30:10.347Z,8.40
2022-10-01T19:32:42.537Z,9.55
2022-10-01T19:35:20.105Z,8.95
2022-10-01T19:37:49.478Z,9.02
2022-10-01T19:40:26.234Z,8.23
2022-10-01T19:42:56.726Z,9.75
2022-10-01T19:45:27.067Z,8.85
2022-10-01T19:48:02.802Z,8.13
2022-10-01T19:50:34.375Z,8.07
2022-10-01T19:53:01.475Z,8.77
2022-10-01T19:55:26.533Z,8.07
2022-10-01T19:57:51.074Z,9.00
2022-10-01T20:00:19.540Z,8.18
2022-10-01T20:02:54.667Z,7.20
2022-10-01T20:05:29.411Z,6.78
2022-10-01T20:08:01.836Z,7.25
2022-10-01T20:10:34.579Z,7.35
2022-10-01T20:13:18.726Z,6.60
2022-10-01T20:15:49.973Z,6.05
2022-10-01T20:18:27.974Z,6.43
2022-10-01T20:21:09.328Z,6.40
2022-10-01T20:23:44.626Z,6.78
2022-10-01T20:26:18.859Z,5.50
2022-10-01T20:28:52.313Z,6.18
2022-10-01T20:31:22.213Z,6.18
2022-10-01T20:34:01.514Z,6.13
2022-10-01T20:36:35.402Z,5.88
2022-10-01T20:39:05.796Z,5.15
2022-10-01T20:41:31.676Z,5.70
2022-10-01T20:44:00.347Z,5.82
2022-10-01T20:46:31.244Z,5.32
2022-10-01T20:49:02.801Z,5.40
2022-10-01T20:51:35.983Z,4.95
2022-10-01T20:54:08.590Z,2.72
2022-10-01T20:56:37.831Z,4.70
2022-10-01T20:59:07.812Z,4.32
2022-10-01T21:01:35.287Z,4.63
2022-10-01T21:04:06.190Z,4.65
2022-10-01T21:06:37.291Z,4.03
2022-10-01T21:09:05.326Z,4.57
2022-10-01T21:11:34.582Z,4.97
2022-10-01T21:14:07.330Z,4.20
2022-10-01T21:16:54.587Z,4.38
2022-10-01T21:19:38.995Z,3.97
2022-10-01T21:22:24.924Z,4.03
2022-10-01T21:24:59.421Z,3.53
2022-10-01T21:27:54.349Z,3.67
2022-10-01T21:30:20.178Z,3.83
2022-10-01T21:33:10.619Z,3.75
2022-10-01T21:35:45.660Z,3.88
2022-10-01T21:38:28.582Z,3.15
2022-10-01T21:41:23.723Z,3.38
2022-10-01T21:44:10.673Z,3.50
2022-10-01T21:46:44.167Z,3.80
2022-10-01T21:49:17.013Z,3.75
2022-10-01T21:51:59.317Z,4.05
2022-10-01T21:54:52.059Z,3.80
2022-10-01T21:57:33.019Z,3.30
2022-10-01T22:00:19.426Z,3.90
2022-10-01T22:03:00.152Z,4.35
2022-10-01T22:05:32.577Z,4.05
2022-10-01T22:08:04.388Z,4.18
2022-10-01T22:10:35.740Z,4.05
2022-10-01T22:13:05.904Z,4.00
2022-10-01T22:15:37.170Z,4.10
2022-10-01T22:18:05.402Z,4.07
2022-10-01T22:20:35.429Z,4.32
2022-10-01T22:23:03.151Z,4.53
2022-10-01T22:25:30.375Z,4.72
2022-10-01T22:28:01.397Z,4.47
2022-10-01T22:30:28.897Z,4.70
2022-10-01T22:33:03.989Z,4.43
2022-10-01T22:35:32.460Z,4.28
2022-10-01T22:38:02.877Z,4.38
2022-10-01T22:40:32.913Z,4.40
2022-10-01T22:43:04.798Z,4.35
2022-10-01T22:45:44.871Z,4.30
2022-10-01T22:48:23.588Z,4.45
2022-10-01T22:51:04.367Z,4.07
2022-10-01T22:53:52.912Z,4.13
2022-10-01T22:56:25.018Z,4.03
2022-10-01T22:59:01.801Z,3.70
2022-10-01T23:01:34.060Z,3.38
2022-10-01T23:04:16.695Z,3.78
2022-10-01T23:06:49.807Z,4.00
2022-10-01T23:09:20.219Z,2.92
2022-10-01T23:11:58.520Z,3.85
2022-10-01T23:14:47.703Z,3.92
2022-10-01T23:17:15.986Z,4.10
2022-10-01T23:19:52.184Z,3.65
2022-10-01T23:22:36.739Z,3.83
2022-10-01T23:25:16.671Z,3.90
2022-10-01T23:28:01.881Z,3.85
2022-10-01T23:30:25.572Z,3.60
2022-10-01T23:33:11.994Z,3.13
2022-10-01T23:35:48.947Z,3.75
2022-10-01T23:38:43.480Z,3.70
2022-10-01T23:41:16.569Z,3.97
2022-10-01T23:43:48.512Z,3.97
2022-10-01T23:46:16.921Z,4.32
2022-10-01T23:48:47.478Z,3.78
2022-10-01T23:51:17.975Z,4.28
2022-10-01T23:53:49.342Z,4.10
2022-10-01T23:56:38.282Z,4.00
2022-10-01T23:59:12.197Z,4.05
